createdAt,value
2023-03-21T00:00:43.490Z,8.00
2023-03-21T00:03:46.797Z,8.15
2023-03-21T00:06:48.956Z,8.80
2023-03-21T00:09:50.874Z,7.63
2023-03-21T00:12:58.636Z,8.38
2023-03-21T00:19:31.275Z,8.70
2023-03-21T00:22:35.894Z,8.15
2023-03-21T00:25:37.737Z,8.32
2023-03-21T00:28:41.560Z,8.02
2023-03-21T00:31:43.191Z,8.53
2023-03-21T00:35:00.209Z,8.43
2023-03-21T00:38:06.868Z,8.70
2023-03-21T00:41:21.362Z,8.45
2023-03-21T00:44:27.882Z,8.73
2023-03-21T00:47:29.674Z,8.53
2023-03-21T00:50:32.437Z,8.52
2023-03-21T00:53:34.065Z,8.77
2023-03-21T00:56:35.769Z,8.43
2023-03-21T00:59:37.367Z,8.90
2023-03-21T01:02:43.495Z,8.10
2023-03-21T01:06:07.570Z,8.50
2023-03-21T01:09:16.646Z,8.73
2023-03-21T01:12:18.305Z,8.52
2023-03-21T01:15:20.006Z,8.10
2023-03-21T01:18:27.260Z,8.00
2023-03-21T01:21:29.018Z,8.63
2023-03-21T01:24:31.277Z,9.38
2023-03-21T01:27:33.959Z,8.50
2023-03-21T01:30:41.608Z,8.88
2023-03-21T01:33:44.156Z,8.47
2023-03-21T01:36:45.815Z,8.52
2023-03-21T01:39:47.412Z,9.20
2023-03-21T01:42:49.212Z,9.15
2023-03-21T01:46:30.212Z,8.32
2023-03-21T01:49:38.723Z,8.60
2023-03-21T01:52:41.890Z,8.88
2023-03-21T01:55:43.882Z,8.75
2023-03-21T01:58:46.038Z,8.30
2023-03-21T02:01:49.376Z,8.18
2023-03-21T02:04:56.173Z,8.60
2023-03-21T02:07:58.605Z,8.63
2023-03-21T02:11:00.250Z,8.63
2023-03-21T02:14:06.762Z,8.82
2023-03-21T02:17:37.093Z,8.68
2023-03-21T02:20:54.425Z,8.47
2023-03-21T02:24:08.022Z,8.40
2023-03-21T02:27:23.986Z,8.20
2023-03-21T02:30:29.637Z,8.20
2023-03-21T02:34:04.428Z,8.50
2023-03-21T02:37:37.560Z,7.23
2023-03-21T02:40:53.417Z,6.97
2023-03-21T02:44:13.265Z,7.15
2023-03-21T02:47:22.184Z,6.18
2023-03-21T02:50:34.742Z,6.70
2023-03-21T02:53:39.581Z,6.30
2023-03-21T02:56:43.080Z,5.72
2023-03-21T02:59:54.365Z,6.07
2023-03-21T03:03:08.858Z,6.10
2023-03-21T03:07:01.144Z,5.78
2023-03-21T03:10:47.690Z,5.57
2023-03-21T03:14:25.097Z,5.60
2023-03-21T03:17:55.552Z,5.75
2023-03-21T03:21:16.892Z,6.05
2023-03-21T03:24:47.243Z,5.72
2023-03-21T03:27:51.314Z,5.50
2023-03-21T03:31:07.906Z,5.57
2023-03-21T03:34:15.182Z,5.45
2023-03-21T03:37:21.678Z,4.90
2023-03-21T03:40:26.286Z,5.70
2023-03-21T03:43:40.177Z,4.70
2023-03-21T03:46:58.069Z,4.90
2023-03-21T03:50:08.962Z,4.97
2023-03-21T03:53:18.306Z,5.60
2023-03-21T03:56:21.352Z,4.88
2023-03-21T03:59:24.276Z,5.20
2023-03-21T04:02:26.007Z,5.20
2023-03-21T04:05:27.688Z,5.20
2023-03-21T04:08:30.171Z,5.90
2023-03-21T04:11:31.928Z,4.85
2023-03-21T04:14:43.973Z,5.40
2023-03-21T04:17:47.903Z,5.60
2023-03-21T04:20:51.203Z,6.07
2023-03-21T04:23:54.791Z,5.70
2023-03-21T04:26:56.458Z,5.40
2023-03-21T04:29:58.199Z,5.53
2023-03-21T04:33:01.266Z,5.45
2023-03-21T04:36:03.061Z,6.00
2023-03-21T04:39:12.023Z,6.15
2023-03-21T04:42:14.542Z,6.20
2023-03-21T04:45:17.380Z,5.87
2023-03-21T04:48:19.831Z,5.75
2023-03-21T04:51:21.468Z,5.72
2023-03-21T04:54:23.044Z,5.82
2023-03-21T04:57:24.787Z,5.35
2023-03-21T05:00:27.219Z,5.60
2023-03-21T05:03:34.429Z,5.68
2023-03-21T05:06:36.693Z,5.45
2023-03-21T05:09:38.519Z,5.38
2023-03-21T05:12:41.344Z,5.50
2023-03-21T05:15:46.198Z,5.80
2023-03-21T05:18:50.708Z,6.07
2023-03-21T05:21:52.344Z,5.75
2023-03-21T05:24:55.395Z,5.32
2023-03-21T05:27:57.191Z,5.32
2023-03-21T05:30:58.999Z,5.00
2023-03-21T05:34:00.791Z,5.53
2023-03-21T05:37:02.404Z,5.07
2023-03-21T05:40:06.680Z,5.10
2023-03-21T05:43:08.335Z,5.70
2023-03-21T05:46:10.807Z,5.10
2023-03-21T05:49:12.577Z,5.13
2023-03-21T05:52:14.349Z,5.13
2023-03-21T05:55:16.176Z,5.18
2023-03-21T05:58:17.903Z,5.43
2023-03-21T06:01:19.537Z,5.70
2023-03-21T06:04:21.295Z,5.88
2023-03-21T06:07:22.973Z,5.72
2023-03-21T06:10:24.716Z,5.85
2023-03-21T06:13:26.380Z,5.70
2023-03-21T06:16:28.881Z,5.43
2023-03-21T06:19:31.290Z,6.00
2023-03-21T06:22:35.011Z,5.97
2023-03-21T06:25:36.917Z,6.20
2023-03-21T06:28:39.018Z,5.57
2023-03-21T06:31:40.965Z,5.70
2023-03-21T06:34:43.041Z,5.40
2023-03-21T06:37:46.188Z,5.60
2023-03-21T06:40:48.106Z,5.78
2023-03-21T06:43:49.840Z,5.93
2023-03-21T06:46:52.173Z,5.80
2023-03-21T06:49:53.909Z,5.35
2023-03-21T06:52:57.599Z,5.90
2023-03-21T06:55:59.236Z,5.43
2023-03-21T06:59:00.927Z,5.15
2023-03-21T07:02:03.215Z,5.33
2023-03-21T07:05:05.284Z,5.75
2023-03-21T07:08:14.182Z,6.00
2023-03-21T07:11:16.221Z,5.78
2023-03-21T07:14:17.852Z,5.78
2023-03-21T07:17:19.512Z,5.67
2023-03-21T07:20:22.502Z,5.90
2023-03-21T07:23:25.927Z,6.32
2023-03-21T07:26:27.630Z,6.00
2023-03-21T07:29:29.338Z,6.20
2023-03-21T07:32:40.466Z,5.80
2023-03-21T07:35:42.439Z,5.80
2023-03-21T07:38:48.702Z,6.05
2023-03-21T07:41:50.835Z,5.72
2023-03-21T07:44:55.051Z,5.82
2023-03-21T07:47:56.943Z,5.70
2023-03-21T07:51:01.088Z,5.80
2023-03-21T07:54:02.946Z,5.85
2023-03-21T07:57:04.697Z,6.05
2023-03-21T08:00:07.250Z,5.53
2023-03-21T08:03:09.963Z,5.47
2023-03-21T08:06:11.893Z,5.13
2023-03-21T08:09:13.798Z,5.28
2023-03-21T08:12:15.568Z,5.18
2023-03-21T08:15:18.193Z,4.95
2023-03-21T08:18:19.922Z,4.63
2023-03-21T08:21:21.670Z,4.82
2023-03-21T08:24:23.336Z,4.78
2023-03-21T08:27:25.091Z,4.97
2023-03-21T08:30:28.803Z,5.60
2023-03-21T08:33:30.448Z,5.20
2023-03-21T08:36:32.336Z,5.13
2023-03-21T08:39:34.114Z,5.93
2023-03-21T08:42:36.316Z,5.88
2023-03-21T08:45:38.269Z,5.90
2023-03-21T08:48:40.153Z,6.40
2023-03-21T08:51:45.488Z,5.75
2023-03-21T08:54:48.527Z,5.75
2023-03-21T08:57:50.290Z,5.82
2023-03-21T09:00:52.318Z,6.00
2023-03-21T09:03:54.139Z,5.80
2023-03-21T09:06:56.356Z,6.20
2023-03-21T09:10:19.076Z,6.07
2023-03-21T09:13:20.977Z,5.57
2023-03-21T09:16:22.771Z,5.95
2023-03-21T09:19:24.597Z,6.30
2023-03-21T09:22:29.444Z,5.90
2023-03-21T09:25:32.660Z,6.47
2023-03-21T09:28:35.108Z,6.85
2023-03-21T09:31:39.976Z,7.00
2023-03-21T09:34:42.166Z,6.53
2023-03-21T09:37:44.816Z,6.38
2023-03-21T09:40:57.328Z,6.80
2023-03-21T09:44:23.192Z,6.32
2023-03-21T09:47:34.885Z,6.40
2023-03-21T09:50:39.092Z,5.77
2023-03-21T09:53:42.817Z,6.00
2023-03-21T09:56:45.735Z,6.00
2023-03-21T09:59:50.628Z,5.60
2023-03-21T10:02:57.567Z,5.47
2023-03-21T10:06:00.704Z,5.80
2023-03-21T10:09:06.787Z,5.00
2023-03-21T10:12:20.210Z,4.97
2023-03-21T10:15:24.695Z,4.63
2023-03-21T10:18:29.933Z,4.65
2023-03-21T10:22:00.223Z,4.60
2023-03-21T10:24:55.219Z,4.60
2023-03-21T10:27:56.908Z,4.50
2023-03-21T10:31:04.912Z,3.90
2023-03-21T10:34:23.645Z,3.55
2023-03-21T10:37:26.978Z,3.87
2023-03-21T10:40:29.234Z,3.88
2023-03-21T10:43:34.912Z,4.53
2023-03-21T10:46:36.813Z,4.90
2023-03-21T10:50:05.909Z,5.10
2023-03-21T10:53:29.196Z,5.50
2023-03-21T10:56:36.573Z,3.85
2023-03-21T10:59:42.153Z,4.00
2023-03-21T11:02:49.765Z,4.28
2023-03-21T11:06:00.103Z,4.55
2023-03-21T11:09:16.196Z,4.00
2023-03-21T11:12:41.379Z,3.90
2023-03-21T11:15:52.473Z,4.30
2023-03-21T11:19:01.870Z,3.88
2023-03-21T11:22:08.185Z,3.88
2023-03-21T11:25:22.127Z,4.20
2023-03-21T11:28:25.900Z,5.50
2023-03-21T11:31:40.546Z,4.00
2023-03-21T11:34:59.744Z,4.15
2023-03-21T11:38:01.471Z,3.80
2023-03-21T11:41:04.748Z,4.13
2023-03-21T11:44:06.539Z,4.47
2023-03-21T11:47:11.045Z,4.50
2023-03-21T11:50:33.963Z,4.45
2023-03-21T11:53:44.829Z,4.22
2023-03-21T11:56:58.544Z,4.60
2023-03-21T12:00:14.425Z,4.50
2023-03-21T12:03:48.456Z,4.40
2023-03-21T12:07:00.128Z,4.30
2023-03-21T12:10:27.354Z,3.97
2023-03-21T12:13:34.953Z,4.10
2023-03-21T12:16:43.558Z,3.92
2023-03-21T12:19:50.418Z,3.63
2023-03-21T12:23:23.205Z,4.30
2023-03-21T12:26:56.569Z,4.10
2023-03-21T12:30:27.344Z,4.13
2023-03-21T12:33:31.968Z,4.00
2023-03-21T12:36:33.541Z,4.03
2023-03-21T12:39:36.372Z,3.22
2023-03-21T12:42:56.911Z,2.75
2023-03-21T12:46:04.034Z,2.40
2023-03-21T12:49:24.566Z,2.80
2023-03-21T12:52:32.235Z,3.35
2023-03-21T12:55:36.398Z,3.03
2023-03-21T12:59:23.229Z,3.17
2023-03-21T13:02:47.010Z,3.50
2023-03-21T13:05:53.682Z,2.45
2023-03-21T13:09:14.932Z,2.67
2023-03-21T13:12:56.543Z,2.20
2023-03-21T13:16:27.437Z,2.30
2023-03-21T13:19:44.077Z,2.70
2023-03-21T13:22:46.237Z,3.00
2023-03-21T13:25:50.680Z,3.00
2023-03-21T13:28:52.374Z,2.65
2023-03-21T13:31:57.523Z,2.50
2023-03-21T13:35:41.398Z,2.80
2023-03-21T13:38:50.691Z,3.00
2023-03-21T13:41:54.635Z,5.80
2023-03-21T13:45:00.274Z,2.95
2023-03-21T13:48:25.285Z,3.33
2023-03-21T13:51:30.060Z,3.10
2023-03-21T13:54:51.179Z,2.78
2023-03-21T13:57:52.854Z,2.63
2023-03-21T14:01:23.667Z,2.25
2023-03-21T14:04:41.991Z,1.90
2023-03-21T14:07:49.872Z,1.70
2023-03-21T14:10:59.740Z,2.00
2023-03-21T14:14:03.426Z,1.95
2023-03-21T14:17:23.137Z,2.30
2023-03-21T14:20:28.567Z,3.00
2023-03-21T14:23:31.963Z,2.83
2023-03-21T14:26:37.921Z,3.17
2023-03-21T14:29:39.813Z,3.88
2023-03-21T14:32:42.669Z,3.70
2023-03-21T14:35:46.967Z,3.15
2023-03-21T14:38:58.239Z,2.90
2023-03-21T14:42:06.270Z,3.15
2023-03-21T14:45:28.359Z,2.50
2023-03-21T14:48:32.929Z,2.03
2023-03-21T14:51:34.614Z,2.00
2023-03-21T14:54:43.667Z,2.30
2023-03-21T14:57:45.508Z,2.53
2023-03-21T15:00:50.279Z,2.90
2023-03-21T15:03:52.444Z,3.20
2023-03-21T15:07:01.607Z,2.90
2023-03-21T15:10:17.852Z,2.77
2023-03-21T15:13:22.326Z,3.25
2023-03-21T15:16:24.313Z,3.45
2023-03-21T15:19:34.852Z,4.85
2023-03-21T15:22:40.331Z,3.97
2023-03-21T15:25:42.518Z,4.27
2023-03-21T15:28:47.020Z,4.85
2023-03-21T15:31:48.878Z,5.15
2023-03-21T15:34:54.043Z,3.80
2023-03-21T15:37:58.212Z,3.97
2023-03-21T15:41:21.641Z,4.90
2023-03-21T15:44:23.297Z,4.45
2023-03-21T15:47:53.205Z,4.40
2023-03-21T15:51:06.745Z,3.88
2023-03-21T15:54:17.816Z,4.00
2023-03-21T15:57:33.270Z,3.60
2023-03-21T16:00:43.956Z,3.72
2023-03-21T16:03:49.031Z,3.42
2023-03-21T16:07:15.406Z,4.25
2023-03-21T16:10:38.363Z,3.78
2023-03-21T16:13:40.453Z,4.03
2023-03-21T16:16:42.695Z,4.13
2023-03-21T16:19:44.360Z,4.20
2023-03-21T16:22:47.377Z,3.90
2023-03-21T16:25:55.986Z,4.22
2023-03-21T16:28:58.489Z,4.17
2023-03-21T16:32:06.073Z,4.05
2023-03-21T16:35:08.539Z,4.50
2023-03-21T16:38:12.393Z,4.50
2023-03-21T16:41:14.732Z,4.78
2023-03-21T16:44:16.978Z,4.50
2023-03-21T16:47:20.777Z,4.32
2023-03-21T16:50:26.875Z,5.10
2023-03-21T16:53:28.534Z,5.80
2023-03-21T16:56:40.813Z,4.95
2023-03-21T16:59:42.785Z,4.80
2023-03-21T17:02:44.389Z,5.00
2023-03-21T17:05:46.482Z,4.60
2023-03-21T17:08:48.572Z,4.70
2023-03-21T17:11:50.448Z,4.40
2023-03-21T17:14:52.182Z,3.97
2023-03-21T17:17:55.709Z,4.70
2023-03-21T17:20:57.476Z,4.55
2023-03-21T17:23:59.108Z,5.03
2023-03-21T17:27:02.013Z,4.70
2023-03-21T17:30:06.750Z,4.93
2023-03-21T17:33:08.437Z,4.80
2023-03-21T17:36:21.051Z,5.13
2023-03-21T17:39:25.197Z,4.70
2023-03-21T17:42:26.799Z,4.60
2023-03-21T17:45:28.711Z,5.00
2023-03-21T17:48:30.325Z,4.75
2023-03-21T17:51:33.142Z,4.80
2023-03-21T17:54:34.815Z,4.57
2023-03-21T17:57:37.794Z,4.85
2023-03-21T18:00:40.316Z,4.83
2023-03-21T18:03:42.217Z,4.75
2023-03-21T18:06:43.927Z,4.80
2023-03-21T18:09:45.702Z,4.50
2023-03-21T18:12:47.436Z,4.43
2023-03-21T18:15:50.636Z,4.57
2023-03-21T18:18:53.912Z,4.72
2023-03-21T18:21:56.187Z,4.88
2023-03-21T18:24:58.006Z,4.70
2023-03-21T18:28:10.642Z,5.20
2023-03-21T18:31:19.864Z,4.47
2023-03-21T18:34:22.154Z,4.43
2023-03-21T18:37:23.784Z,4.43
2023-03-21T18:40:25.512Z,4.80
2023-03-21T18:46:50.694Z,4.60
2023-03-21T18:53:14.291Z,5.28
2023-03-21T18:56:57.679Z,5.38
2023-03-21T18:59:39.239Z,4.82
2023-03-21T19:02:47.674Z,4.60
2023-03-21T19:05:49.593Z,4.55
2023-03-21T19:08:51.580Z,4.75
2023-03-21T19:11:53.342Z,4.32
2023-03-21T19:14:55.089Z,4.05
2023-03-21T19:18:30.785Z,4.47
2023-03-21T19:21:18.770Z,4.00
2023-03-21T19:24:27.594Z,4.10
2023-03-21T19:27:30.268Z,4.15
2023-03-21T19:30:31.988Z,4.15
2023-03-21T19:33:34.038Z,4.23
2023-03-21T19:36:35.835Z,4.03
2023-03-21T19:39:38.000Z,4.00
2023-03-21T19:42:40.511Z,4.20
2023-03-21T19:45:48.693Z,4.32
2023-03-21T19:48:50.624Z,4.50
2023-03-21T19:51:52.262Z,3.97
2023-03-21T19:54:53.965Z,4.43
2023-03-21T19:57:55.597Z,4.90
2023-03-21T20:00:57.250Z,5.35
2023-03-21T20:03:58.950Z,4.20
2023-03-21T20:07:00.747Z,4.70
2023-03-21T20:10:02.465Z,4.53
2023-03-21T20:13:04.144Z,4.28
2023-03-21T20:16:06.456Z,4.47
2023-03-21T20:19:12.426Z,4.20
2023-03-21T20:22:24.451Z,4.28
2023-03-21T20:25:28.704Z,4.53
2023-03-21T20:28:30.543Z,4.50
2023-03-21T20:31:32.382Z,4.38
2023-03-21T20:34:36.780Z,4.50
2023-03-21T20:37:39.500Z,4.85
2023-03-21T20:40:41.201Z,4.57
2023-03-21T20:47:05.553Z,4.60
2023-03-21T20:50:10.217Z,4.90
2023-03-21T20:53:11.947Z,4.80
2023-03-21T20:56:13.505Z,4.95
2023-03-21T20:59:24.552Z,5.10
2023-03-21T21:02:28.296Z,4.65
2023-03-21T21:05:34.379Z,4.83
2023-03-21T21:08:36.552Z,4.40
2023-03-21T21:15:02.976Z,4.82
2023-03-21T21:18:07.349Z,5.10
2023-03-21T21:21:09.409Z,5.13
2023-03-21T21:24:11.725Z,5.25
2023-03-21T21:27:13.912Z,5.45
2023-03-21T21:30:16.789Z,5.35
2023-03-21T21:33:21.175Z,6.20
2023-03-21T21:36:22.964Z,5.60
2023-03-21T21:39:26.567Z,5.65
2023-03-21T21:42:28.230Z,5.65
2023-03-21T21:45:30.030Z,6.00
2023-03-21T21:48:31.740Z,5.97
2023-03-21T21:51:34.091Z,5.90
2023-03-21T21:54:36.114Z,5.60
2023-03-21T21:57:39.712Z,5.93
2023-03-21T22:00:42.711Z,5.70
2023-03-21T22:03:46.058Z,5.38
2023-03-21T22:06:47.853Z,5.53
2023-03-21T22:09:49.881Z,6.00
2023-03-21T22:12:51.591Z,6.30
2023-03-21T22:15:53.260Z,5.80
2023-03-21T22:18:54.848Z,6.43
2023-03-21T22:21:58.217Z,6.00
2023-03-21T22:24:59.819Z,5.93
2023-03-21T22:28:01.522Z,6.60
2023-03-21T22:31:15.877Z,5.93
2023-03-21T22:34:17.556Z,5.85
2023-03-21T22:37:19.227Z,5.60
2023-03-21T22:40:20.972Z,6.20
2023-03-21T22:43:22.659Z,5.80
2023-03-21T22:46:24.305Z,5.50
2023-03-21T22:49:26.236Z,5.55
2023-03-21T22:52:27.852Z,5.50
2023-03-21T22:55:29.540Z,6.07
2023-03-21T22:58:32.572Z,6.15
2023-03-21T23:01:34.228Z,6.38
2023-03-21T23:04:36.818Z,6.30
2023-03-21T23:07:39.056Z,6.30
2023-03-21T23:10:43.878Z,6.78
2023-03-21T23:13:47.570Z,6.47
2023-03-21T23:16:52.625Z,6.75
2023-03-21T23:19:54.233Z,6.78
2023-03-21T23:22:56.080Z,6.50
2023-03-21T23:25:57.655Z,6.90
2023-03-21T23:28:59.346Z,6.38
2023-03-21T23:32:01.302Z,6.68
2023-03-21T23:35:03.036Z,6.53
2023-03-21T23:38:05.382Z,6.80
2023-03-21T23:41:12.765Z,6.60
2023-03-21T23:44:15.420Z,6.72
2023-03-21T23:47:17.412Z,6.70
2023-03-21T23:50:19.026Z,7.10
2023-03-21T23:53:21.003Z,7.00
2023-03-21T23:56:25.364Z,6.80
2023-03-21T23:59:27.587Z,7.60
